createdAt,value
2023-03-30T00:03:35.155Z,10.47
2023-03-30T00:08:43.121Z,11.40
2023-03-30T00:13:48.474Z,12.20
2023-03-30T00:19:00.706Z,12.70
2023-03-30T00:24:08.586Z,13.30
2023-03-30T00:29:13.630Z,12.37
2023-03-30T00:34:20.770Z,17.23
2023-03-30T00:39:31.487Z,13.23
2023-03-30T00:45:08.793Z,11.60
2023-03-30T00:50:15.255Z,13.87
2023-03-30T00:55:24.884Z,13.77
2023-03-30T01:00:30.017Z,13.20
2023-03-30T01:05:36.036Z,13.70
2023-03-30T01:10:48.870Z,13.87
2023-03-30T01:16:08.130Z,16.33
2023-03-30T01:21:33.395Z,12.73
2023-03-30T01:27:06.066Z,13.30
2023-03-30T01:32:43.541Z,15.37
2023-03-30T01:38:17.674Z,15.07
2023-03-30T01:43:36.328Z,16.60
2023-03-30T01:48:47.508Z,15.43
2023-03-30T01:53:59.447Z,15.53
2023-03-30T01:59:12.959Z,16.77
2023-03-30T02:04:19.294Z,15.67
2023-03-30T02:09:27.451Z,16.17
2023-03-30T02:14:38.517Z,15.80
2023-03-30T02:19:46.517Z,16.73
2023-03-30T02:24:57.954Z,21.27
2023-03-30T02:30:07.864Z,18.80
2023-03-30T02:35:25.165Z,17.03
2023-03-30T02:40:42.732Z,19.17
2023-03-30T02:45:56.499Z,20.97
2023-03-30T02:51:12.370Z,22.27
2023-03-30T02:56:53.084Z,22.33
2023-03-30T03:02:06.603Z,23.77
2023-03-30T03:07:13.203Z,21.87
2023-03-30T03:12:19.966Z,23.73
2023-03-30T03:17:34.745Z,27.03
2023-03-30T03:22:43.280Z,26.03
2023-03-30T03:27:48.369Z,23.47
2023-03-30T03:33:02.387Z,23.03
2023-03-30T03:38:09.939Z,22.30
2023-03-30T03:43:15.704Z,21.73
2023-03-30T03:48:25.514Z,23.83
2023-03-30T03:53:32.037Z,21.73
2023-03-30T03:58:40.815Z,20.90
2023-03-30T04:03:51.704Z,22.27
2023-03-30T04:08:56.913Z,22.53
2023-03-30T04:14:26.229Z,20.20
2023-03-30T04:19:47.572Z,18.93
2023-03-30T04:25:25.962Z,23.07
2023-03-30T04:31:05.600Z,22.67
2023-03-30T04:36:19.601Z,19.17
2023-03-30T04:41:42.073Z,22.33
2023-03-30T04:47:06.773Z,20.27
2023-03-30T04:52:34.021Z,19.57
2023-03-30T04:57:52.656Z,21.50
2023-03-30T05:03:31.575Z,20.70
2023-03-30T05:08:59.662Z,20.73
2023-03-30T05:14:21.956Z,22.90
2023-03-30T05:19:50.492Z,23.47
2023-03-30T05:25:30.374Z,21.20
2023-03-30T05:30:44.919Z,23.43
2023-03-30T05:36:09.636Z,20.80
2023-03-30T05:41:45.272Z,22.97
2023-03-30T05:46:57.754Z,21.87
2023-03-30T05:52:29.350Z,21.90
2023-03-30T05:57:59.868Z,22.10
2023-03-30T06:03:12.778Z,19.93
2023-03-30T06:08:22.168Z,23.13
2023-03-30T06:13:33.520Z,19.73
2023-03-30T06:18:39.153Z,20.53
2023-03-30T06:23:49.444Z,21.40
2023-03-30T06:29:01.731Z,18.47
2023-03-30T06:34:10.581Z,15.67
2023-03-30T06:39:17.406Z,18.03
2023-03-30T06:44:26.251Z,18.80
2023-03-30T06:49:32.605Z,18.30
2023-03-30T06:54:55.686Z,19.03
2023-03-30T07:00:06.653Z,18.93
2023-03-30T07:05:17.843Z,16.43
2023-03-30T07:10:38.534Z,14.23
2023-03-30T07:15:49.799Z,12.87
2023-03-30T07:20:57.633Z,11.67
2023-03-30T07:26:07.302Z,13.17
2023-03-30T07:31:22.301Z,12.03
2023-03-30T07:36:28.512Z,14.73
2023-03-30T07:41:35.799Z,10.97
2023-03-30T07:46:51.049Z,13.53
2023-03-30T07:52:02.671Z,14.37
2023-03-30T07:57:27.533Z,10.60
2023-03-30T08:02:37.089Z,13.87
2023-03-30T08:07:43.269Z,12.47
2023-03-30T08:12:59.591Z,11.67
2023-03-30T08:18:09.888Z,14.60
2023-03-30T08:23:15.410Z,14.73
2023-03-30T08:28:20.324Z,15.07
2023-03-30T08:33:36.518Z,13.33
2023-03-30T08:38:41.742Z,13.63
2023-03-30T08:43:55.856Z,14.23
2023-03-30T08:49:11.072Z,13.90
2023-03-30T08:54:19.601Z,14.07
2023-03-30T08:59:35.094Z,15.00
2023-03-30T09:04:59.494Z,19.07
2023-03-30T09:10:06.650Z,15.00
2023-03-30T09:15:20.168Z,22.37
2023-03-30T09:20:34.158Z,18.43
2023-03-30T09:25:49.562Z,14.27
2023-03-30T09:31:00.134Z,17.10
2023-03-30T09:36:18.736Z,23.00
2023-03-30T09:41:36.009Z,20.97
2023-03-30T09:46:41.495Z,21.47
2023-03-30T09:52:04.003Z,23.13
2023-03-30T09:57:24.879Z,18.50
2023-03-30T10:02:34.293Z,24.67
2023-03-30T10:07:44.503Z,26.03
2023-03-30T10:12:52.702Z,25.87
2023-03-30T10:17:58.001Z,24.57
2023-03-30T10:23:17.625Z,22.83
2023-03-30T10:28:28.753Z,30.33
2023-03-30T10:33:41.110Z,25.23
2023-03-30T10:38:50.167Z,25.67
2023-03-30T10:43:55.937Z,23.40
2023-03-30T10:49:18.043Z,25.17
2023-03-30T10:54:32.588Z,19.00
2023-03-30T10:59:59.346Z,16.83
2023-03-30T11:05:10.977Z,13.07
2023-03-30T11:10:29.469Z,18.67
2023-03-30T11:15:40.793Z,14.63
2023-03-30T11:20:52.769Z,9.07
2023-03-30T11:26:10.052Z,14.50
2023-03-30T11:31:27.012Z,10.43
2023-03-30T11:36:40.567Z,13.00
2023-03-30T11:41:55.388Z,12.80
2023-03-30T11:47:17.801Z,13.77
2023-03-30T11:52:32.441Z,14.17
2023-03-30T11:57:47.876Z,16.63
2023-03-30T12:02:59.865Z,12.47
2023-03-30T12:08:19.155Z,13.70
2023-03-30T12:13:38.115Z,14.83
2023-03-30T12:19:00.662Z,11.93
2023-03-30T12:24:16.222Z,16.47
2023-03-30T12:34:36.517Z,13.47
2023-03-30T12:39:49.602Z,14.43
2023-03-30T12:45:14.250Z,15.03
2023-03-30T12:50:37.864Z,14.30
2023-03-30T12:55:50.228Z,13.27
2023-03-30T13:01:24.799Z,14.87
2023-03-30T13:06:39.423Z,13.33
2023-03-30T13:11:50.342Z,6.10
2023-03-30T13:17:20.691Z,5.00
2023-03-30T13:22:35.407Z,5.57
2023-03-30T13:27:44.157Z,8.57
2023-03-30T13:33:04.882Z,6.47
2023-03-30T13:38:25.260Z,3.17
2023-03-30T13:43:44.123Z,7.53
2023-03-30T13:49:05.886Z,4.63
2023-03-30T13:54:23.515Z,4.97
2023-03-30T13:59:35.050Z,6.47
2023-03-30T14:04:44.928Z,7.53
2023-03-30T14:10:05.675Z,6.63
2023-03-30T14:15:25.641Z,3.10
2023-03-30T14:20:47.443Z,4.83
2023-03-30T14:25:59.323Z,7.07
2023-03-30T14:31:07.271Z,5.90
2023-03-30T14:36:18.976Z,4.10
2023-03-30T14:41:27.868Z,5.87
2023-03-30T14:46:41.066Z,6.30
2023-03-30T14:51:52.135Z,4.13
2023-03-30T14:57:00.944Z,6.07
2023-03-30T15:02:10.292Z,5.07
2023-03-30T15:07:20.646Z,4.33
2023-03-30T15:12:31.734Z,4.53
2023-03-30T15:17:41.661Z,6.33
2023-03-30T15:22:53.430Z,4.63
2023-03-30T15:28:07.494Z,3.17
2023-03-30T15:33:24.012Z,5.63
2023-03-30T15:38:37.804Z,5.73
2023-03-30T15:43:56.336Z,3.87
2023-03-30T15:49:04.305Z,5.70
2023-03-30T15:54:17.128Z,0.83
2023-03-30T15:59:25.045Z,3.10
2023-03-30T16:04:34.826Z,1.53
2023-03-30T16:09:42.549Z,1.60
2023-03-30T16:14:48.064Z,1.57
2023-03-30T16:19:53.405Z,1.07
2023-03-30T16:25:01.646Z,1.87
2023-03-30T16:30:19.343Z,0.87
2023-03-30T16:35:27.743Z,1.40
2023-03-30T16:40:40.893Z,1.17
2023-03-30T16:45:48.151Z,1.60
2023-03-30T16:50:56.802Z,4.47
2023-03-30T16:56:04.735Z,5.67
2023-03-30T17:01:18.723Z,2.20
2023-03-30T17:06:25.864Z,1.63
2023-03-30T17:11:33.823Z,1.80
2023-03-30T17:16:39.069Z,4.63
2023-03-30T17:21:47.278Z,3.73
2023-03-30T17:26:54.952Z,1.50
2023-03-30T17:32:01.780Z,2.67
2023-03-30T17:37:07.248Z,2.17
2023-03-30T17:42:15.014Z,2.30
2023-03-30T17:47:20.298Z,1.73
2023-03-30T17:52:28.537Z,2.17
2023-03-30T17:57:37.569Z,3.67
2023-03-30T18:02:42.758Z,2.83
2023-03-30T18:07:48.809Z,3.27
2023-03-30T18:12:57.886Z,1.43
2023-03-30T18:18:04.571Z,3.17
2023-03-30T18:23:12.759Z,2.17
2023-03-30T18:28:22.927Z,1.63
2023-03-30T18:33:29.742Z,2.63
2023-03-30T18:38:36.866Z,1.47
2023-03-30T18:43:46.694Z,1.77
2023-03-30T18:48:51.761Z,2.93
2023-03-30T18:53:57.181Z,2.43
2023-03-30T18:59:08.616Z,2.20
2023-03-30T19:04:15.950Z,1.77
2023-03-30T19:09:29.801Z,4.07
2023-03-30T19:14:45.443Z,4.07
2023-03-30T19:19:51.000Z,2.67
2023-03-30T19:24:58.122Z,3.43
2023-03-30T19:30:08.147Z,3.50
2023-03-30T19:35:14.223Z,8.80
2023-03-30T19:40:21.974Z,2.93
2023-03-30T19:45:30.591Z,1.60
2023-03-30T19:50:35.920Z,4.70
2023-03-30T19:55:43.516Z,2.57
2023-03-30T20:00:51.408Z,1.37
2023-03-30T20:05:59.552Z,2.37
2023-03-30T20:11:09.800Z,1.47
2023-03-30T20:16:24.905Z,2.13
2023-03-30T20:21:32.588Z,2.53
2023-03-30T20:26:37.951Z,2.17
2023-03-30T20:31:46.915Z,1.87
2023-03-30T20:36:52.079Z,3.60
2023-03-30T20:41:58.678Z,1.17
2023-03-30T20:47:09.444Z,1.80
2023-03-30T20:52:17.069Z,1.23
2023-03-30T20:57:22.533Z,2.27
2023-03-30T21:02:31.650Z,2.30
2023-03-30T21:07:38.621Z,1.37
2023-03-30T21:12:43.925Z,2.00
2023-03-30T21:17:53.472Z,0.97
2023-03-30T21:22:58.847Z,3.33
2023-03-30T21:28:05.200Z,3.03
2023-03-30T21:33:13.066Z,2.87
2023-03-30T21:38:19.527Z,3.63
2023-03-30T21:43:24.759Z,3.43
2023-03-30T21:48:36.776Z,4.40
2023-03-30T21:53:41.777Z,2.63
2023-03-30T21:58:47.011Z,1.23
2023-03-30T22:03:55.486Z,2.83
2023-03-30T22:09:01.495Z,3.13
2023-03-30T22:14:08.829Z,1.97
2023-03-30T22:19:18.664Z,1.87
2023-03-30T22:24:25.094Z,3.23
2023-03-30T22:29:31.406Z,3.47
2023-03-30T22:34:41.855Z,4.00
2023-03-30T22:39:46.863Z,4.07
2023-03-30T22:44:54.101Z,5.20
2023-03-30T22:50:01.973Z,4.60
2023-03-30T22:55:08.447Z,1.00
2023-03-30T23:00:17.375Z,3.53
2023-03-30T23:05:26.879Z,3.40
2023-03-30T23:10:33.962Z,3.60
2023-03-30T23:15:39.186Z,3.43
2023-03-30T23:20:46.950Z,3.67
2023-03-30T23:25:55.039Z,3.50
2023-03-30T23:31:01.123Z,4.30
2023-03-30T23:36:10.443Z,2.30
2023-03-30T23:41:17.538Z,5.00
2023-03-30T23:46:22.804Z,3.23
2023-03-30T23:51:33.177Z,2.07
2023-03-30T23:56:42.226Z,3.63
